Terminal Aerodrome Forecast
Issued by NWS

Home | Current Version | Previous Version | Text Only | Print | Product List | Glossary Off
Versions: 1 2 3 4 5 6 7 8 9 10 11 12 13 14 15 16 17 18 19 20 21 22 23 24 25 26 27 28 29 30 31 32 33 34 35 36 37 38 39 40 41 42 43 44 45 46

000
FTUS43 KLOT 282056 AAA
TAFGYY
TAF AMD
KGYY 282056Z 2821/2918 19019G30KT P6SM SCT045 BKN120
      TEMPO 2823/2824 4SM -TSRA OVC040CB
     FM290300 21017G28KT P6SM VCTS BKN060CB
      TEMPO 2904/2908 2SM TSRA OVC050CB
     FM290900 22013G22KT P6SM SCT040 OVC090=

USA.gov is the U.S. government's official web portal to all federal, state and local government web resources and services.